Terminal Aerodrome Forecast
Issued by NWS

Home | Current Version | Previous Version | Text Only | Print | Product List | Glossary On
Versions: 1 2 3 4 5 6 7 8 9 10 11 12 13 14 15 16 17 18 19
000
FTUS45 KGJT 211141
TAFRIL
TAF
KRIL 211141Z 2112/2212 VRB03KT P6SM BKN070 OVC090
     FM211600 09004KT 5SM -SHSN OVC035
     FM211900 27008KT 3SM -SHSNRA OVC020
     FM220200 29011G19KT P6SM VCSH OVC015
     FM220600 28006KT P6SM BKN025
     FM220900 26005KT P6SM BKN040=

USA.gov is the U.S. government's official web portal to all federal, state and local government web resources and services.